sensor_id;sensor_type;location;lat;lon;timestamp;temperature;humidity
23713;DHT22;12035;49.978;8.298;2023-03-17T00:04:19;10.40;56.20
23713;DHT22;12035;49.978;8.298;2023-03-17T00:09:18;10.40;56.20
23713;DHT22;12035;49.978;8.298;2023-03-17T00:14:17;10.40;56.20
23713;DHT22;12035;49.978;8.298;2023-03-17T00:19:17;10.40;56.20
23713;DHT22;12035;49.978;8.298;2023-03-17T00:24:16;10.40;56.20
23713;DHT22;12035;49.978;8.298;2023-03-17T00:29:12;10.40;56.20
23713;DHT22;12035;49.978;8.298;2023-03-17T00:34:10;10.40;55.90
23713;DHT22;12035;49.978;8.298;2023-03-17T00:39:13;10.50;55.70
23713;DHT22;12035;49.978;8.298;2023-03-17T00:44:11;10.50;55.90
23713;DHT22;12035;49.978;8.298;2023-03-17T00:49:13;10.40;55.90
23713;DHT22;12035;49.978;8.298;2023-03-17T00:54:13;10.40;56.00
23713;DHT22;12035;49.978;8.298;2023-03-17T00:59:23;10.40;56.10
23713;DHT22;12035;49.978;8.298;2023-03-17T01:04:22;10.40;56.10
23713;DHT22;12035;49.978;8.298;2023-03-17T01:09:24;10.40;56.00
23713;DHT22;12035;49.978;8.298;2023-03-17T01:14:22;10.30;56.10
23713;DHT22;12035;49.978;8.298;2023-03-17T01:19:20;10.20;56.00
23713;DHT22;12035;49.978;8.298;2023-03-17T01:24:17;10.20;56.10
23713;DHT22;12035;49.978;8.298;2023-03-17T01:29:16;10.20;56.20
23713;DHT22;12035;49.978;8.298;2023-03-17T01:34:13;10.10;56.30
23713;DHT22;12035;49.978;8.298;2023-03-17T01:39:11;10.00;56.40
23713;DHT22;12035;49.978;8.298;2023-03-17T01:44:14;9.90;56.60
23713;DHT22;12035;49.978;8.298;2023-03-17T01:49:21;9.90;56.70
23713;DHT22;12035;49.978;8.298;2023-03-17T01:54:25;9.80;56.80
23713;DHT22;12035;49.978;8.298;2023-03-17T01:59:27;9.80;56.80
23713;DHT22;12035;49.978;8.298;2023-03-17T02:04:28;9.80;56.90
23713;DHT22;12035;49.978;8.298;2023-03-17T02:09:27;9.70;56.90
23713;DHT22;12035;49.978;8.298;2023-03-17T02:14:26;9.70;56.90
23713;DHT22;12035;49.978;8.298;2023-03-17T02:19:23;9.70;57.00
23713;DHT22;12035;49.978;8.298;2023-03-17T02:24:35;9.70;57.60
23713;DHT22;12035;49.978;8.298;2023-03-17T02:29:34;9.70;57.20
23713;DHT22;12035;49.978;8.298;2023-03-17T02:34:33;9.70;57.00
23713;DHT22;12035;49.978;8.298;2023-03-17T02:39:32;9.70;57.10
23713;DHT22;12035;49.978;8.298;2023-03-17T02:44:29;9.70;57.10
23713;DHT22;12035;49.978;8.298;2023-03-17T02:49:26;9.60;57.10
23713;DHT22;12035;49.978;8.298;2023-03-17T02:54:25;9.60;57.10
23713;DHT22;12035;49.978;8.298;2023-03-17T02:59:23;9.50;57.10
23713;DHT22;12035;49.978;8.298;2023-03-17T03:04:21;9.50;57.20
23713;DHT22;12035;49.978;8.298;2023-03-17T03:09:20;9.50;57.20
23713;DHT22;12035;49.978;8.298;2023-03-17T03:14:18;9.40;57.30
23713;DHT22;12035;49.978;8.298;2023-03-17T03:19:17;9.40;57.30
23713;DHT22;12035;49.978;8.298;2023-03-17T03:24:14;9.40;57.40
23713;DHT22;12035;49.978;8.298;2023-03-17T03:29:11;9.40;57.40
23713;DHT22;12035;49.978;8.298;2023-03-17T03:34:08;9.30;57.20
23713;DHT22;12035;49.978;8.298;2023-03-17T03:39:07;9.40;57.30
23713;DHT22;12035;49.978;8.298;2023-03-17T03:44:04;9.30;57.30
23713;DHT22;12035;49.978;8.298;2023-03-17T03:49:01;9.30;57.30
23713;DHT22;12035;49.978;8.298;2023-03-17T03:53:58;9.30;57.30
23713;DHT22;12035;49.978;8.298;2023-03-17T03:58:57;9.30;57.40
23713;DHT22;12035;49.978;8.298;2023-03-17T04:03:54;9.30;57.40
23713;DHT22;12035;49.978;8.298;2023-03-17T04:08:51;9.30;57.30
23713;DHT22;12035;49.978;8.298;2023-03-17T04:13:48;9.30;57.30
23713;DHT22;12035;49.978;8.298;2023-03-17T04:18:47;9.30;57.30
23713;DHT22;12035;49.978;8.298;2023-03-17T04:23:44;9.20;57.40
23713;DHT22;12035;49.978;8.298;2023-03-17T04:28:41;9.10;57.40
23713;DHT22;12035;49.978;8.298;2023-03-17T04:33:38;9.10;57.50
23713;DHT22;12035;49.978;8.298;2023-03-17T04:38:37;9.00;57.50
23713;DHT22;12035;49.978;8.298;2023-03-17T04:43:34;9.00;57.60
23713;DHT22;12035;49.978;8.298;2023-03-17T04:48:31;9.00;57.60
23713;DHT22;12035;49.978;8.298;2023-03-17T04:53:28;9.00;57.50
23713;DHT22;12035;49.978;8.298;2023-03-17T04:58:27;9.00;57.50
23713;DHT22;12035;49.978;8.298;2023-03-17T05:03:24;9.00;57.50
23713;DHT22;12035;49.978;8.298;2023-03-17T05:08:22;9.00;57.50
23713;DHT22;12035;49.978;8.298;2023-03-17T05:13:21;9.00;57.70
23713;DHT22;12035;49.978;8.298;2023-03-17T05:18:21;8.90;57.60
23713;DHT22;12035;49.978;8.298;2023-03-17T05:23:19;8.90;57.80
23713;DHT22;12035;49.978;8.298;2023-03-17T05:28:16;8.90;57.80
23713;DHT22;12035;49.978;8.298;2023-03-17T05:33:15;8.90;57.80
23713;DHT22;12035;49.978;8.298;2023-03-17T05:38:14;8.80;57.90
23713;DHT22;12035;49.978;8.298;2023-03-17T05:43:11;8.80;57.90
23713;DHT22;12035;49.978;8.298;2023-03-17T05:48:08;8.80;57.90
23713;DHT22;12035;49.978;8.298;2023-03-17T05:53:06;8.80;57.90
23713;DHT22;12035;49.978;8.298;2023-03-17T05:58:05;8.80;57.90
23713;DHT22;12035;49.978;8.298;2023-03-17T06:03:03;8.80;58.20
23713;DHT22;12035;49.978;8.298;2023-03-17T06:08:02;8.80;58.10
23713;DHT22;12035;49.978;8.298;2023-03-17T06:13:00;8.90;58.60
23713;DHT22;12035;49.978;8.298;2023-03-17T06:18:00;9.30;59.70
23713;DHT22;12035;49.978;8.298;2023-03-17T06:23:00;10.00;60.80
23713;DHT22;12035;49.978;8.298;2023-03-17T06:27:57;10.90;60.70
23713;DHT22;12035;49.978;8.298;2023-03-17T06:32:56;11.90;60.40
23713;DHT22;12035;49.978;8.298;2023-03-17T06:37:55;12.90;59.40
23713;DHT22;12035;49.978;8.298;2023-03-17T06:42:52;13.90;58.40
23713;DHT22;12035;49.978;8.298;2023-03-17T06:47:50;14.70;56.90
23713;DHT22;12035;49.978;8.298;2023-03-17T06:52:47;15.50;54.80
23713;DHT22;12035;49.978;8.298;2023-03-17T06:57:45;16.00;53.40
23713;DHT22;12035;49.978;8.298;2023-03-17T07:02:42;16.40;52.20
23713;DHT22;12035;49.978;8.298;2023-03-17T07:07:40;16.80;51.40
23713;DHT22;12035;49.978;8.298;2023-03-17T07:12:38;17.30;50.50
23713;DHT22;12035;49.978;8.298;2023-03-17T07:17:37;17.60;49.60
23713;DHT22;12035;49.978;8.298;2023-03-17T07:22:34;18.00;48.40
23713;DHT22;12035;49.978;8.298;2023-03-17T07:27:31;18.10;47.40
23713;DHT22;12035;49.978;8.298;2023-03-17T07:32:28;18.20;46.30
23713;DHT22;12035;49.978;8.298;2023-03-17T07:37:28;18.20;45.00
23713;DHT22;12035;49.978;8.298;2023-03-17T07:42:25;18.20;44.90
23713;DHT22;12035;49.978;8.298;2023-03-17T07:47:24;18.20;44.70
23713;DHT22;12035;49.978;8.298;2023-03-17T07:52:21;18.10;44.00
23713;DHT22;12035;49.978;8.298;2023-03-17T07:57:20;18.20;45.10
23713;DHT22;12035;49.978;8.298;2023-03-17T08:02:18;18.20;44.20
23713;DHT22;12035;49.978;8.298;2023-03-17T08:07:15;18.40;44.70
23713;DHT22;12035;49.978;8.298;2023-03-17T08:12:13;18.50;44.20
23713;DHT22;12035;49.978;8.298;2023-03-17T08:17:11;18.70;43.90
23713;DHT22;12035;49.978;8.298;2023-03-17T08:22:09;18.90;43.60
23713;DHT22;12035;49.978;8.298;2023-03-17T08:27:06;19.10;42.40
23713;DHT22;12035;49.978;8.298;2023-03-17T08:32:05;19.10;42.50
23713;DHT22;12035;49.978;8.298;2023-03-17T08:37:04;19.10;42.80
23713;DHT22;12035;49.978;8.298;2023-03-17T08:42:03;19.00;42.60
23713;DHT22;12035;49.978;8.298;2023-03-17T08:47:01;19.10;43.40
23713;DHT22;12035;49.978;8.298;2023-03-17T08:51:59;19.30;44.00
23713;DHT22;12035;49.978;8.298;2023-03-17T08:56:58;19.50;43.30
23713;DHT22;12035;49.978;8.298;2023-03-17T09:01:56;19.70;42.60
23713;DHT22;12035;49.978;8.298;2023-03-17T09:06:53;19.80;43.30
23713;DHT22;12035;49.978;8.298;2023-03-17T09:11:52;19.90;41.80
23713;DHT22;12035;49.978;8.298;2023-03-17T09:16:50;19.80;41.80
23713;DHT22;12035;49.978;8.298;2023-03-17T09:21:47;19.70;41.10
23713;DHT22;12035;49.978;8.298;2023-03-17T09:26:44;19.40;41.00
23713;DHT22;12035;49.978;8.298;2023-03-17T09:31:41;19.10;41.60
23713;DHT22;12035;49.978;8.298;2023-03-17T09:36:40;18.90;42.10
23713;DHT22;12035;49.978;8.298;2023-03-17T09:41:49;18.70;41.90
23713;DHT22;12035;49.978;8.298;2023-03-17T09:46:59;18.40;41.80
23713;DHT22;12035;49.978;8.298;2023-03-17T09:52:01;18.00;42.00
23713;DHT22;12035;49.978;8.298;2023-03-17T09:57:03;17.70;42.60
23713;DHT22;12035;49.978;8.298;2023-03-17T10:02:16;17.40;43.10
23713;DHT22;12035;49.978;8.298;2023-03-17T10:07:23;17.30;43.60
23713;DHT22;12035;49.978;8.298;2023-03-17T10:12:29;17.30;43.80
23713;DHT22;12035;49.978;8.298;2023-03-17T10:17:37;17.30;44.00
23713;DHT22;12035;49.978;8.298;2023-03-17T10:22:40;17.20;43.90
23713;DHT22;12035;49.978;8.298;2023-03-17T10:27:41;17.20;44.10
23713;DHT22;12035;49.978;8.298;2023-03-17T10:32:41;17.20;44.20
23713;DHT22;12035;49.978;8.298;2023-03-17T10:37:40;17.20;44.20
23713;DHT22;12035;49.978;8.298;2023-03-17T10:42:45;17.20;44.40
23713;DHT22;12035;49.978;8.298;2023-03-17T10:47:46;17.30;44.50
23713;DHT22;12035;49.978;8.298;2023-03-17T10:52:46;17.40;44.70
23713;DHT22;12035;49.978;8.298;2023-03-17T10:57:50;17.40;44.60
23713;DHT22;12035;49.978;8.298;2023-03-17T11:02:54;17.50;44.80
23713;DHT22;12035;49.978;8.298;2023-03-17T11:08:06;17.60;44.60
23713;DHT22;12035;49.978;8.298;2023-03-17T11:13:05;17.70;44.40
23713;DHT22;12035;49.978;8.298;2023-03-17T11:18:11;17.80;44.80
23713;DHT22;12035;49.978;8.298;2023-03-17T11:23:18;17.90;44.40
23713;DHT22;12035;49.978;8.298;2023-03-17T11:28:21;18.00;43.80
23713;DHT22;12035;49.978;8.298;2023-03-17T11:33:31;18.00;43.70
23713;DHT22;12035;49.978;8.298;2023-03-17T11:38:36;18.00;43.40
23713;DHT22;12035;49.978;8.298;2023-03-17T11:43:39;18.00;43.60
23713;DHT22;12035;49.978;8.298;2023-03-17T11:48:45;17.90;43.50
23713;DHT22;12035;49.978;8.298;2023-03-17T11:53:56;17.90;43.70
23713;DHT22;12035;49.978;8.298;2023-03-17T11:59:01;17.90;43.70
23713;DHT22;12035;49.978;8.298;2023-03-17T12:04:08;17.90;44.00
23713;DHT22;12035;49.978;8.298;2023-03-17T12:09:19;18.00;44.30
23713;DHT22;12035;49.978;8.298;2023-03-17T12:14:26;18.10;44.20
23713;DHT22;12035;49.978;8.298;2023-03-17T12:19:27;18.20;44.40
23713;DHT22;12035;49.978;8.298;2023-03-17T12:24:33;18.30;44.20
23713;DHT22;12035;49.978;8.298;2023-03-17T12:29:39;18.30;44.00
23713;DHT22;12035;49.978;8.298;2023-03-17T12:34:43;18.40;43.80
23713;DHT22;12035;49.978;8.298;2023-03-17T12:39:52;18.40;43.70
23713;DHT22;12035;49.978;8.298;2023-03-17T12:45:15;18.30;43.90
23713;DHT22;12035;49.978;8.298;2023-03-17T12:50:30;18.30;44.20
23713;DHT22;12035;49.978;8.298;2023-03-17T12:55:37;18.30;44.40
23713;DHT22;12035;49.978;8.298;2023-03-17T13:00:47;18.30;44.50
23713;DHT22;12035;49.978;8.298;2023-03-17T13:05:48;18.40;44.60
23713;DHT22;12035;49.978;8.298;2023-03-17T13:10:48;18.50;44.70
23713;DHT22;12035;49.978;8.298;2023-03-17T13:15:54;18.50;44.60
23713;DHT22;12035;49.978;8.298;2023-03-17T13:21:09;18.50;44.60
23713;DHT22;12035;49.978;8.298;2023-03-17T13:26:12;18.60;44.60
23713;DHT22;12035;49.978;8.298;2023-03-17T13:31:27;18.60;44.60
23713;DHT22;12035;49.978;8.298;2023-03-17T13:36:33;18.50;44.40
23713;DHT22;12035;49.978;8.298;2023-03-17T13:41:47;18.40;44.50
23713;DHT22;12035;49.978;8.298;2023-03-17T13:46:50;18.40;44.60
23713;DHT22;12035;49.978;8.298;2023-03-17T13:51:50;18.40;45.00
23713;DHT22;12035;49.978;8.298;2023-03-17T13:56:49;18.40;45.10
23713;DHT22;12035;49.978;8.298;2023-03-17T14:01:53;18.50;45.10
23713;DHT22;12035;49.978;8.298;2023-03-17T14:06:54;18.50;45.30
23713;DHT22;12035;49.978;8.298;2023-03-17T14:11:57;18.50;45.30
23713;DHT22;12035;49.978;8.298;2023-03-17T14:16:59;18.60;45.50
23713;DHT22;12035;49.978;8.298;2023-03-17T14:22:17;18.70;45.30
23713;DHT22;12035;49.978;8.298;2023-03-17T14:27:16;18.70;45.20
23713;DHT22;12035;49.978;8.298;2023-03-17T14:32:15;18.70;45.00
23713;DHT22;12035;49.978;8.298;2023-03-17T14:37:14;18.70;45.00
23713;DHT22;12035;49.978;8.298;2023-03-17T14:42:11;18.60;45.20
23713;DHT22;12035;49.978;8.298;2023-03-17T14:47:16;18.70;45.20
23713;DHT22;12035;49.978;8.298;2023-03-17T14:52:16;18.70;45.00
23713;DHT22;12035;49.978;8.298;2023-03-17T14:57:15;18.70;45.30
23713;DHT22;12035;49.978;8.298;2023-03-17T15:02:22;18.80;44.60
23713;DHT22;12035;49.978;8.298;2023-03-17T15:07:31;18.70;44.10
23713;DHT22;12035;49.978;8.298;2023-03-17T15:12:32;18.70;44.10
23713;DHT22;12035;49.978;8.298;2023-03-17T15:17:33;18.70;44.40
23713;DHT22;12035;49.978;8.298;2023-03-17T15:22:39;18.80;44.50
23713;DHT22;12035;49.978;8.298;2023-03-17T15:27:37;18.70;44.50
23713;DHT22;12035;49.978;8.298;2023-03-17T15:32:36;18.70;44.70
23713;DHT22;12035;49.978;8.298;2023-03-17T15:37:34;18.70;44.60
23713;DHT22;12035;49.978;8.298;2023-03-17T15:42:33;18.70;44.80
23713;DHT22;12035;49.978;8.298;2023-03-17T15:47:33;18.70;44.80
23713;DHT22;12035;49.978;8.298;2023-03-17T15:52:34;18.70;45.00
23713;DHT22;12035;49.978;8.298;2023-03-17T15:57:31;18.70;45.00
23713;DHT22;12035;49.978;8.298;2023-03-17T16:02:30;18.60;45.20
23713;DHT22;12035;49.978;8.298;2023-03-17T16:07:29;18.60;45.40
23713;DHT22;12035;49.978;8.298;2023-03-17T16:12:27;18.60;45.60
23713;DHT22;12035;49.978;8.298;2023-03-17T16:17:25;18.50;45.60
23713;DHT22;12035;49.978;8.298;2023-03-17T16:22:38;18.50;45.60
23713;DHT22;12035;49.978;8.298;2023-03-17T16:27:36;18.40;45.90
23713;DHT22;12035;49.978;8.298;2023-03-17T16:32:33;18.20;45.90
23713;DHT22;12035;49.978;8.298;2023-03-17T16:37:30;18.20;46.10
23713;DHT22;12035;49.978;8.298;2023-03-17T16:42:28;18.10;46.20
23713;DHT22;12035;49.978;8.298;2023-03-17T16:47:26;18.10;46.40
23713;DHT22;12035;49.978;8.298;2023-03-17T16:52:23;18.10;46.60
23713;DHT22;12035;49.978;8.298;2023-03-17T16:57:22;18.10;46.60
23713;DHT22;12035;49.978;8.298;2023-03-17T17:02:21;18.10;46.70
23713;DHT22;12035;49.978;8.298;2023-03-17T17:07:18;18.00;46.80
23713;DHT22;12035;49.978;8.298;2023-03-17T17:12:16;18.00;46.90
23713;DHT22;12035;49.978;8.298;2023-03-17T17:17:13;17.90;47.00
23713;DHT22;12035;49.978;8.298;2023-03-17T17:22:11;17.80;47.10
23713;DHT22;12035;49.978;8.298;2023-03-17T17:27:09;17.80;47.30
23713;DHT22;12035;49.978;8.298;2023-03-17T17:32:06;17.70;47.50
23713;DHT22;12035;49.978;8.298;2023-03-17T17:37:03;17.70;47.70
23713;DHT22;12035;49.978;8.298;2023-03-17T17:42:04;17.70;47.80
23713;DHT22;12035;49.978;8.298;2023-03-17T17:47:01;17.70;47.90
23713;DHT22;12035;49.978;8.298;2023-03-17T17:51:58;17.70;48.00
23713;DHT22;12035;49.978;8.298;2023-03-17T17:56:55;17.60;47.90
23713;DHT22;12035;49.978;8.298;2023-03-17T18:01:54;17.60;48.10
23713;DHT22;12035;49.978;8.298;2023-03-17T18:06:51;17.60;48.20
23713;DHT22;12035;49.978;8.298;2023-03-17T18:11:48;17.50;48.00
23713;DHT22;12035;49.978;8.298;2023-03-17T18:16:45;17.50;48.00
23713;DHT22;12035;49.978;8.298;2023-03-17T18:21:44;17.40;48.10
23713;DHT22;12035;49.978;8.298;2023-03-17T18:26:42;17.30;48.20
23713;DHT22;12035;49.978;8.298;2023-03-17T18:31:40;17.30;48.10
23713;DHT22;12035;49.978;8.298;2023-03-17T18:36:38;17.20;47.90
23713;DHT22;12035;49.978;8.298;2023-03-17T18:41:37;17.20;47.80
23713;DHT22;12035;49.978;8.298;2023-03-17T18:46:34;17.10;48.00
23713;DHT22;12035;49.978;8.298;2023-03-17T18:51:32;17.00;48.00
23713;DHT22;12035;49.978;8.298;2023-03-17T18:56:29;17.00;48.20
23713;DHT22;12035;49.978;8.298;2023-03-17T19:01:29;16.90;48.30
23713;DHT22;12035;49.978;8.298;2023-03-17T19:06:26;16.90;48.60
23713;DHT22;12035;49.978;8.298;2023-03-17T19:11:24;16.80;48.70
23713;DHT22;12035;49.978;8.298;2023-03-17T19:16:21;16.80;48.80
23713;DHT22;12035;49.978;8.298;2023-03-17T19:21:25;16.70;48.90
23713;DHT22;12035;49.978;8.298;2023-03-17T19:26:22;16.70;49.20
23713;DHT22;12035;49.978;8.298;2023-03-17T19:31:19;16.70;49.20
23713;DHT22;12035;49.978;8.298;2023-03-17T19:36:17;16.60;49.20
23713;DHT22;12035;49.978;8.298;2023-03-17T19:41:15;16.60;49.90
23713;DHT22;12035;49.978;8.298;2023-03-17T19:46:13;16.60;49.40
23713;DHT22;12035;49.978;8.298;2023-03-17T19:51:10;16.60;49.50
23713;DHT22;12035;49.978;8.298;2023-03-17T19:56:07;16.50;49.50
23713;DHT22;12035;49.978;8.298;2023-03-17T20:01:06;16.50;49.70
23713;DHT22;12035;49.978;8.298;2023-03-17T20:06:04;16.50;49.90
23713;DHT22;12035;49.978;8.298;2023-03-17T20:11:02;16.50;50.00
23713;DHT22;12035;49.978;8.298;2023-03-17T20:16:00;16.50;50.10
23713;DHT22;12035;49.978;8.298;2023-03-17T20:20:59;16.50;50.10
23713;DHT22;12035;49.978;8.298;2023-03-17T20:25:59;16.50;50.30
23713;DHT22;12035;49.978;8.298;2023-03-17T20:30:58;16.50;50.30
23713;DHT22;12035;49.978;8.298;2023-03-17T20:35:58;16.50;50.30
23713;DHT22;12035;49.978;8.298;2023-03-17T20:41:03;16.40;50.40
23713;DHT22;12035;49.978;8.298;2023-03-17T20:46:03;16.40;50.60
23713;DHT22;12035;49.978;8.298;2023-03-17T20:51:04;16.40;50.30
23713;DHT22;12035;49.978;8.298;2023-03-17T20:56:04;16.40;50.50
23713;DHT22;12035;49.978;8.298;2023-03-17T21:01:03;16.40;50.80
23713;DHT22;12035;49.978;8.298;2023-03-17T21:06:00;16.30;51.00
23713;DHT22;12035;49.978;8.298;2023-03-17T21:10:59;16.30;51.20
23713;DHT22;12035;49.978;8.298;2023-03-17T21:15:58;16.30;51.40
23713;DHT22;12035;49.978;8.298;2023-03-17T21:20:56;16.20;51.40
23713;DHT22;12035;49.978;8.298;2023-03-17T21:25:54;16.20;51.40
23713;DHT22;12035;49.978;8.298;2023-03-17T21:30:52;16.20;51.40
23713;DHT22;12035;49.978;8.298;2023-03-17T21:35:50;16.20;51.70
23713;DHT22;12035;49.978;8.298;2023-03-17T21:40:47;16.20;51.70
23713;DHT22;12035;49.978;8.298;2023-03-17T21:45:44;16.20;51.70
23713;DHT22;12035;49.978;8.298;2023-03-17T21:50:43;16.20;52.00
23713;DHT22;12035;49.978;8.298;2023-03-17T21:55:41;16.10;52.10
23713;DHT22;12035;49.978;8.298;2023-03-17T22:00:38;16.10;52.10
23713;DHT22;12035;49.978;8.298;2023-03-17T22:05:35;16.10;52.20
23713;DHT22;12035;49.978;8.298;2023-03-17T22:10:34;16.10;52.30
23713;DHT22;12035;49.978;8.298;2023-03-17T22:15:31;16.10;52.50
23713;DHT22;12035;49.978;8.298;2023-03-17T22:20:28;16.00;52.60
23713;DHT22;12035;49.978;8.298;2023-03-17T22:25:26;16.00;52.70
23713;DHT22;12035;49.978;8.298;2023-03-17T22:30:24;15.90;52.70
23713;DHT22;12035;49.978;8.298;2023-03-17T22:35:22;15.90;52.90
23713;DHT22;12035;49.978;8.298;2023-03-17T22:40:19;15.90;53.10
23713;DHT22;12035;49.978;8.298;2023-03-17T22:45:16;15.90;53.20
23713;DHT22;12035;49.978;8.298;2023-03-17T22:50:16;15.80;53.40
23713;DHT22;12035;49.978;8.298;2023-03-17T22:55:15;15.80;53.60
23713;DHT22;12035;49.978;8.298;2023-03-17T23:00:14;15.80;53.50
23713;DHT22;12035;49.978;8.298;2023-03-17T23:05:12;15.70;53.70
23713;DHT22;12035;49.978;8.298;2023-03-17T23:10:14;15.70;53.60
23713;DHT22;12035;49.978;8.298;2023-03-17T23:15:12;15.70;53.90
23713;DHT22;12035;49.978;8.298;2023-03-17T23:20:10;15.60;53.70
23713;DHT22;12035;49.978;8.298;2023-03-17T23:25:08;15.60;53.80
23713;DHT22;12035;49.978;8.298;2023-03-17T23:30:11;15.50;53.80
23713;DHT22;12035;49.978;8.298;2023-03-17T23:35:09;15.50;54.10
23713;DHT22;12035;49.978;8.298;2023-03-17T23:40:08;15.50;54.20
23713;DHT22;12035;49.978;8.298;2023-03-17T23:45:10;15.50;54.40
23713;DHT22;12035;49.978;8.298;2023-03-17T23:50:10;15.50;54.60
23713;DHT22;12035;49.978;8.298;2023-03-17T23:55:09;15.50;54.70
